FDX543 PANC-SBGR
Flight info
| Callsign | FDX543 |
|---|---|
| Flight time | N/A |
| Altitude | 31000 |
| Route | TED DCT ELLAM DCT TIEKL NCA20 OMSUN DCT 60N30 DCT YXJ DCT YEGGA DCT YEA DCT DPR DCT ONL DCT LNK DCT MCI DCT ARG DCT MEMFS DCT MGM DCT ACORI DCT FROGZ DCT URSUS DCT BILSI UL795 LENAX UL417 NEFTU UP525 EJA UM782 LONAX UL201 OBEBA DCT ASBIV DCT RODAD DCT OBLUG UZ42 ZARES |
| Aircraft | B77L/H-SDE1E2E3FGHIJ2J3J4J5M1RWXY/LB1D1 |
Departure
| Time | 2026-04-30 21:11 |
|---|---|
| Airport | Ted Stevens Anchorage International Airport (PANC) |
Arrival
| Time | N/A |
|---|---|
| Airport | São Paulo/Guarulhos–Governor André Franco Montoro International Airport (SBGR) |
| Time | Latitude | Longitude | Altitude | Speed | Heading |
|---|---|---|---|---|---|
| 2026-04-30 20:48 | 61.19049 | -149.99956 | 125 ft | 0 kts | 73° |
| 2026-04-30 20:55 | 61.19047 | -149.99965 | 125 ft | 2 kts | 73° |
| 2026-04-30 20:55 | 61.19043 | -149.99995 | 125 ft | 2 kts | 72° |
| 2026-04-30 20:55 | 61.19038 | -150.00024 | 125 ft | 2 kts | 73° |
| 2026-04-30 20:56 | 61.19035 | -150.00085 | 125 ft | 2 kts | 110° |
| 2026-04-30 20:56 | 61.19042 | -150.00114 | 125 ft | 2 kts | 131° |
| 2026-04-30 20:56 | 61.19061 | -150.00142 | 125 ft | 1 kts | 165° |
| 2026-04-30 20:57 | 61.19064 | -150.00143 | 125 ft | 0 kts | 165° |
| 2026-04-30 21:01 | 61.19023 | -150.00120 | 125 ft | 6 kts | 165° |
| 2026-04-30 21:01 | 61.18966 | -150.00090 | 125 ft | 10 kts | 164° |
| 2026-04-30 21:01 | 61.18806 | -149.99997 | 125 ft | 11 kts | 165° |
| 2026-04-30 21:02 | 61.18737 | -150.00029 | 125 ft | 10 kts | 230° |
| 2026-04-30 21:02 | 61.18709 | -150.00188 | 125 ft | 12 kts | 253° |
| 2026-04-30 21:02 | 61.18672 | -150.00328 | 125 ft | 10 kts | 213° |
| 2026-04-30 21:02 | 61.18595 | -150.00330 | 125 ft | 12 kts | 165° |
| 2026-04-30 21:03 | 61.18505 | -150.00284 | 125 ft | 13 kts | 165° |
| 2026-04-30 21:03 | 61.18407 | -150.00227 | 125 ft | 15 kts | 165° |
| 2026-04-30 21:03 | 61.18294 | -150.00165 | 125 ft | 17 kts | 165° |
| 2026-04-30 21:03 | 61.18168 | -150.00092 | 125 ft | 18 kts | 166° |
| 2026-04-30 21:04 | 61.18036 | -150.00026 | 125 ft | 20 kts | 163° |
| 2026-04-30 21:04 | 61.17895 | -149.99942 | 125 ft | 22 kts | 165° |
| 2026-04-30 21:04 | 61.17579 | -149.99760 | 125 ft | 23 kts | 167° |
| 2026-04-30 21:05 | 61.17424 | -149.99675 | 125 ft | 21 kts | 165° |
| 2026-04-30 21:05 | 61.17285 | -149.99600 | 125 ft | 19 kts | 166° |
| 2026-04-30 21:05 | 61.17169 | -149.99530 | 125 ft | 13 kts | 156° |
| 2026-04-30 21:05 | 61.17128 | -149.99381 | 125 ft | 12 kts | 95° |
| 2026-04-30 21:06 | 61.17126 | -149.99182 | 125 ft | 14 kts | 89° |
| 2026-04-30 21:06 | 61.17121 | -149.98969 | 125 ft | 15 kts | 95° |
| 2026-04-30 21:06 | 61.17114 | -149.98735 | 125 ft | 16 kts | 89° |
| 2026-04-30 21:06 | 61.17117 | -149.98492 | 125 ft | 17 kts | 83° |
| 2026-04-30 21:07 | 61.17116 | -149.98253 | 125 ft | 17 kts | 89° |
| 2026-04-30 21:07 | 61.17114 | -149.97965 | 125 ft | 22 kts | 90° |
| 2026-04-30 21:07 | 61.17116 | -149.97636 | 125 ft | 22 kts | 91° |
| 2026-04-30 21:07 | 61.17125 | -149.97350 | 125 ft | 19 kts | 84° |
| 2026-04-30 21:08 | 61.17133 | -149.97082 | 125 ft | 17 kts | 91° |
| 2026-04-30 21:08 | 61.17126 | -149.96883 | 125 ft | 10 kts | 115° |
| 2026-04-30 21:08 | 61.17063 | -149.96811 | 125 ft | 11 kts | 169° |
| 2026-04-30 21:08 | 61.16974 | -149.96809 | 125 ft | 13 kts | 187° |
| 2026-04-30 21:09 | 61.16902 | -149.96916 | 125 ft | 13 kts | 243° |
| 2026-04-30 21:09 | 61.16861 | -149.97111 | 125 ft | 14 kts | 249° |
| 2026-04-30 21:09 | 61.16832 | -149.97255 | 125 ft | 7 kts | 230° |
| 2026-04-30 21:09 | 61.16790 | -149.97305 | 125 ft | 4 kts | 231° |
| 2026-04-30 21:10 | 61.16788 | -149.97333 | 125 ft | 0 kts | 270° |
| 2026-04-30 21:10 | 61.16789 | -149.97382 | 125 ft | 9 kts | 271° |
| 2026-04-30 21:10 | 61.16784 | -149.97815 | 125 ft | 58 kts | 269° |
| 2026-04-30 21:10 | 61.16779 | -149.99081 | 125 ft | 115 kts | 269° |
| 2026-04-30 21:11 | 61.16784 | -150.01090 | 126 ft | 164 kts | 268° |
| 2026-04-30 21:11 | 61.16787 | -150.03656 | 392 ft | 179 kts | 262° |
| 2026-04-30 21:11 | 61.16734 | -150.06251 | 697 ft | 186 kts | 260° |
| 2026-04-30 21:11 | 61.16615 | -150.08931 | 1080 ft | 192 kts | 259° |
| 2026-04-30 21:12 | 61.16488 | -150.11739 | 1478 ft | 199 kts | 259° |
| 2026-04-30 21:12 | 61.16573 | -150.14644 | 1819 ft | 213 kts | 289° |
| 2026-04-30 21:12 | 61.17548 | -150.17032 | 2069 ft | 231 kts | 333° |
| 2026-04-30 21:12 | 61.19043 | -150.18335 | 2441 ft | 239 kts | 341° |
| 2026-04-30 21:13 | 61.20693 | -150.18956 | 2753 ft | 245 kts | 13° |
| 2026-04-30 21:13 | 61.22200 | -150.17479 | 3141 ft | 242 kts | 42° |
| 2026-04-30 21:13 | 61.23441 | -150.15067 | 3499 ft | 247 kts | 62° |
| 2026-04-30 21:13 | 61.23990 | -150.11765 | 3877 ft | 247 kts | 82° |
| 2026-04-30 21:14 | 61.24522 | -150.08353 | 4373 ft | 255 kts | 69° |
| 2026-04-30 21:14 | 61.25289 | -150.05031 | 4926 ft | 257 kts | 70° |
| 2026-04-30 21:14 | 61.25988 | -150.01567 | 5463 ft | 259 kts | 71° |
| 2026-04-30 21:14 | 61.26683 | -149.98100 | 6013 ft | 261 kts | 71° |
| 2026-04-30 21:15 | 61.27377 | -149.94636 | 6566 ft | 262 kts | 71° |
| 2026-04-30 21:15 | 61.28077 | -149.91130 | 7128 ft | 263 kts | 71° |
| 2026-04-30 21:15 | 61.28770 | -149.87654 | 7677 ft | 263 kts | 71° |
| 2026-04-30 21:15 | 61.29465 | -149.84152 | 8210 ft | 263 kts | 72° |
| 2026-04-30 21:16 | 61.30108 | -149.80591 | 8693 ft | 265 kts | 73° |
| 2026-04-30 21:16 | 61.30753 | -149.77022 | 9210 ft | 265 kts | 73° |
| 2026-04-30 21:16 | 61.31401 | -149.73422 | 9678 ft | 267 kts | 73° |
| 2026-04-30 21:16 | 61.32055 | -149.69785 | 10101 ft | 270 kts | 73° |
| 2026-04-30 21:17 | 61.32706 | -149.66136 | 10546 ft | 272 kts | 73° |
| 2026-04-30 21:17 | 61.33365 | -149.62436 | 10969 ft | 275 kts | 73° |
| 2026-04-30 21:17 | 61.34044 | -149.58618 | 11229 ft | 284 kts | 73° |
| 2026-04-30 21:17 | 61.34717 | -149.54735 | 11499 ft | 291 kts | 75° |
| 2026-04-30 21:18 | 61.35301 | -149.50661 | 11769 ft | 299 kts | 76° |
| 2026-04-30 21:18 | 61.35932 | -149.46460 | 12039 ft | 308 kts | 75° |
| 2026-04-30 21:18 | 61.36585 | -149.42139 | 12310 ft | 317 kts | 76° |
| 2026-04-30 21:18 | 61.37256 | -149.37695 | 12580 ft | 326 kts | 76° |
| 2026-04-30 21:19 | 61.37805 | -149.33084 | 12669 ft | 335 kts | 87° |
| 2026-04-30 21:19 | 61.37899 | -149.28166 | 12716 ft | 348 kts | 91° |
| 2026-04-30 21:19 | 61.38023 | -149.23015 | 12907 ft | 360 kts | 90° |
| 2026-04-30 21:19 | 61.38126 | -149.17813 | 13407 ft | 361 kts | 91° |
| 2026-04-30 21:20 | 61.38226 | -149.12552 | 13942 ft | 363 kts | 91° |
| 2026-04-30 21:20 | 61.38320 | -149.07301 | 14413 ft | 365 kts | 91° |
| 2026-04-30 21:20 | 61.38411 | -149.02005 | 14849 ft | 369 kts | 92° |
| 2026-04-30 21:20 | 61.38501 | -148.96603 | 15268 ft | 372 kts | 92° |
| 2026-04-30 21:21 | 61.38588 | -148.91252 | 15670 ft | 376 kts | 92° |
| 2026-04-30 21:21 | 61.38677 | -148.85790 | 16075 ft | 379 kts | 92° |
| 2026-04-30 21:21 | 61.38847 | -148.74742 | 16860 ft | 385 kts | 92° |
| 2026-04-30 21:22 | 61.38931 | -148.69133 | 17267 ft | 388 kts | 93° |
| 2026-04-30 21:22 | 61.39167 | -148.52109 | 18385 ft | 396 kts | 93° |
| 2026-04-30 21:23 | 61.39242 | -148.46359 | 18738 ft | 399 kts | 94° |
| 2026-04-30 21:23 | 61.39317 | -148.40521 | 19083 ft | 402 kts | 94° |
| 2026-04-30 21:23 | 61.39458 | -148.28836 | 19774 ft | 407 kts | 95° |
| 2026-04-30 21:24 | 61.39526 | -148.22876 | 20106 ft | 410 kts | 95° |
| 2026-04-30 21:24 | 61.39589 | -148.16945 | 20408 ft | 413 kts | 95° |
| 2026-04-30 21:24 | 61.39652 | -148.10986 | 20709 ft | 416 kts | 95° |
| 2026-04-30 21:24 | 61.39713 | -148.04936 | 21014 ft | 419 kts | 95° |
| 2026-04-30 21:25 | 61.39828 | -147.92740 | 21609 ft | 424 kts | 96° |
| 2026-04-30 21:25 | 61.39880 | -147.86575 | 21884 ft | 427 kts | 96° |
| 2026-04-30 21:25 | 61.39932 | -147.80319 | 22166 ft | 430 kts | 96° |
| 2026-04-30 21:26 | 61.40026 | -147.67874 | 22745 ft | 435 kts | 96° |
| 2026-04-30 21:26 | 61.40071 | -147.61488 | 23041 ft | 437 kts | 96° |
| 2026-04-30 21:27 | 61.40149 | -147.48805 | 23568 ft | 442 kts | 96° |
| 2026-04-30 21:27 | 61.40183 | -147.42444 | 23806 ft | 445 kts | 96° |
| 2026-04-30 21:27 | 61.40216 | -147.35930 | 24054 ft | 448 kts | 96° |
| 2026-04-30 21:28 | 61.40273 | -147.22958 | 24589 ft | 452 kts | 97° |
| 2026-04-30 21:28 | 61.40294 | -147.16388 | 24803 ft | 455 kts | 97° |
| 2026-04-30 21:28 | 61.40334 | -147.03128 | 25210 ft | 461 kts | 97° |
| 2026-04-30 21:29 | 61.40346 | -146.96425 | 25393 ft | 465 kts | 97° |
| 2026-04-30 21:29 | 61.40371 | -146.76007 | 25961 ft | 475 kts | 97° |
| 2026-04-30 21:30 | 61.40370 | -146.62198 | 26386 ft | 479 kts | 97° |
| 2026-04-30 21:31 | 61.40340 | -146.41199 | 26958 ft | 488 kts | 97° |
| 2026-04-30 21:31 | 61.40303 | -146.26918 | 27378 ft | 492 kts | 98° |
| 2026-04-30 21:32 | 61.40248 | -146.12682 | 27707 ft | 497 kts | 98° |
| 2026-04-30 21:32 | 61.40215 | -146.05502 | 27888 ft | 500 kts | 98° |
| 2026-04-30 21:32 | 61.40179 | -145.98193 | 28083 ft | 502 kts | 98° |
| 2026-04-30 21:32 | 61.40138 | -145.90941 | 28238 ft | 504 kts | 98° |
| 2026-04-30 21:33 | 61.40093 | -145.83574 | 28405 ft | 507 kts | 98° |
| 2026-04-30 21:33 | 61.39991 | -145.68842 | 28736 ft | 512 kts | 98° |
| 2026-04-30 21:33 | 61.39934 | -145.61484 | 28889 ft | 514 kts | 98° |
| 2026-04-30 21:34 | 61.39872 | -145.53978 | 29017 ft | 517 kts | 98° |
| 2026-04-30 21:34 | 61.39734 | -145.38870 | 29296 ft | 522 kts | 98° |
| 2026-04-30 21:34 | 61.39659 | -145.31339 | 29464 ft | 524 kts | 99° |
| 2026-04-30 21:35 | 61.39580 | -145.23770 | 29616 ft | 526 kts | 99° |
| 2026-04-30 21:35 | 61.39496 | -145.16138 | 29754 ft | 528 kts | 99° |
| 2026-04-30 21:35 | 61.39361 | -145.00653 | 29755 ft | 541 kts | 96° |
| 2026-04-30 21:36 | 61.39370 | -144.84817 | 29915 ft | 548 kts | 96° |
| 2026-04-30 21:37 | 61.39335 | -144.61029 | 30367 ft | 553 kts | 96° |
| 2026-04-30 21:37 | 61.39311 | -144.52985 | 30495 ft | 555 kts | 96° |
| 2026-04-30 21:37 | 61.39286 | -144.44926 | 30684 ft | 556 kts | 96° |
| 2026-04-30 21:37 | 61.39253 | -144.36850 | 30871 ft | 557 kts | 96° |
| 2026-04-30 21:38 | 61.39218 | -144.28824 | 31059 ft | 556 kts | 97° |
| 2026-04-30 21:38 | 61.39177 | -144.20828 | 31108 ft | 554 kts | 97° |
| 2026-04-30 21:38 | 61.39079 | -144.04733 | 31117 ft | 556 kts | 97° |
| 2026-04-30 21:39 | 61.38962 | -143.88626 | 31118 ft | 557 kts | 97° |
| 2026-04-30 21:39 | 61.38825 | -143.72530 | 31123 ft | 557 kts | 97° |
| 2026-04-30 21:40 | 61.38672 | -143.56438 | 31097 ft | 557 kts | 97° |
| 2026-04-30 21:40 | 61.38499 | -143.40343 | 31061 ft | 557 kts | 97° |
| 2026-04-30 21:41 | 61.38306 | -143.24152 | 30999 ft | 555 kts | 98° |
| 2026-04-30 21:41 | 61.38094 | -143.08166 | 31010 ft | 555 kts | 98° |
| 2026-04-30 21:42 | 61.37857 | -142.92101 | 31018 ft | 558 kts | 97° |
| 2026-04-30 21:42 | 61.37604 | -142.75836 | 31020 ft | 560 kts | 97° |
| 2026-04-30 21:43 | 61.37340 | -142.59663 | 31021 ft | 560 kts | 97° |
| 2026-04-30 21:43 | 61.37051 | -142.43486 | 31022 ft | 560 kts | 97° |
| 2026-04-30 21:44 | 61.36744 | -142.27306 | 31012 ft | 559 kts | 98° |
| 2026-04-30 21:44 | 61.36415 | -142.11203 | 31015 ft | 559 kts | 98° |
| 2026-04-30 21:45 | 61.36066 | -141.94959 | 31018 ft | 559 kts | 98° |
| 2026-04-30 21:45 | 61.35703 | -141.78915 | 31019 ft | 559 kts | 98° |
| 2026-04-30 21:46 | 61.35317 | -141.62746 | 31020 ft | 559 kts | 98° |
| 2026-04-30 21:46 | 61.34910 | -141.46519 | 31022 ft | 560 kts | 98° |
| 2026-04-30 21:47 | 61.34490 | -141.30432 | 31016 ft | 559 kts | 98° |
| 2026-04-30 21:47 | 61.34048 | -141.14355 | 31016 ft | 559 kts | 99° |
| 2026-04-30 21:48 | 61.33468 | -140.98256 | 31016 ft | 557 kts | 103° |
| 2026-04-30 21:48 | 61.32253 | -140.82246 | 31018 ft | 559 kts | 104° |
| 2026-04-30 21:49 | 61.31010 | -140.66342 | 31020 ft | 559 kts | 104° |
| 2026-04-30 21:49 | 61.29739 | -140.50427 | 31022 ft | 559 kts | 104° |
| 2026-04-30 21:50 | 61.28448 | -140.34526 | 31023 ft | 559 kts | 105° |
| 2026-04-30 21:50 | 61.27148 | -140.18747 | 31022 ft | 558 kts | 105° |
| 2026-04-30 21:51 | 61.25821 | -140.02898 | 31026 ft | 558 kts | 105° |
| 2026-04-30 21:51 | 61.24474 | -139.87021 | 31027 ft | 558 kts | 105° |
| 2026-04-30 21:52 | 61.23112 | -139.71207 | 31028 ft | 558 kts | 105° |
| 2026-04-30 21:52 | 61.21729 | -139.55386 | 31030 ft | 558 kts | 105° |
| 2026-04-30 21:53 | 61.20326 | -139.39543 | 31031 ft | 558 kts | 105° |
| 2026-04-30 21:53 | 61.18903 | -139.23709 | 31021 ft | 557 kts | 106° |
| 2026-04-30 21:54 | 61.17463 | -139.07944 | 31024 ft | 559 kts | 106° |
| 2026-04-30 21:54 | 61.15999 | -138.92102 | 31026 ft | 561 kts | 105° |
| 2026-04-30 21:55 | 61.14519 | -138.76241 | 31028 ft | 561 kts | 105° |
| 2026-04-30 21:55 | 61.13013 | -138.60370 | 31030 ft | 561 kts | 105° |
| 2026-04-30 21:56 | 61.11492 | -138.44560 | 31031 ft | 561 kts | 105° |
| 2026-04-30 21:56 | 61.09955 | -138.28754 | 31022 ft | 561 kts | 106° |
| 2026-04-30 21:57 | 61.08396 | -138.12978 | 31023 ft | 561 kts | 106° |
| 2026-04-30 21:57 | 61.06827 | -137.97267 | 31026 ft | 560 kts | 107° |
| 2026-04-30 21:58 | 61.05235 | -137.81528 | 31026 ft | 560 kts | 107° |
| 2026-04-30 21:58 | 61.03634 | -137.65906 | 31028 ft | 560 kts | 107° |
| 2026-04-30 21:59 | 61.02000 | -137.50148 | 31029 ft | 560 kts | 107° |
| 2026-04-30 22:00 | 60.99533 | -137.26697 | 31019 ft | 559 kts | 108° |
| 2026-04-30 22:00 | 60.97021 | -137.03284 | 31031 ft | 559 kts | 108° |
| 2026-04-30 22:01 | 60.95315 | -136.87620 | 31034 ft | 558 kts | 107° |
| 2026-04-30 22:01 | 60.93610 | -136.72130 | 31036 ft | 556 kts | 107° |
| 2026-04-30 22:02 | 60.91890 | -136.56657 | 31038 ft | 556 kts | 107° |
| 2026-04-30 22:02 | 60.90157 | -136.41266 | 31039 ft | 556 kts | 107° |
| 2026-04-30 22:03 | 60.88388 | -136.25716 | 31034 ft | 556 kts | 108° |
| 2026-04-30 22:03 | 60.86612 | -136.10306 | 31038 ft | 556 kts | 108° |
| 2026-04-30 22:04 | 60.84829 | -135.94989 | 31039 ft | 556 kts | 108° |
| 2026-04-30 22:05 | 60.82106 | -135.71922 | 31042 ft | 556 kts | 108° |
| 2026-04-30 22:05 | 60.80265 | -135.56523 | 31043 ft | 556 kts | 108° |
| 2026-04-30 22:06 | 60.78424 | -135.41287 | 31044 ft | 556 kts | 108° |
| 2026-04-30 22:06 | 60.75609 | -135.18297 | 31037 ft | 555 kts | 109° |
| 2026-04-30 22:07 | 60.73717 | -135.03069 | 31038 ft | 556 kts | 109° |
| 2026-04-30 22:07 | 60.71789 | -134.87703 | 31039 ft | 559 kts | 108° |
| 2026-04-30 22:08 | 60.69847 | -134.72345 | 31040 ft | 559 kts | 108° |
| 2026-04-30 22:08 | 60.67887 | -134.57021 | 31042 ft | 559 kts | 108° |
| 2026-04-30 22:09 | 60.65913 | -134.41745 | 31044 ft | 559 kts | 108° |
| 2026-04-30 22:09 | 60.63930 | -134.26540 | 31032 ft | 558 kts | 109° |
| 2026-04-30 22:10 | 60.61918 | -134.11295 | 31036 ft | 559 kts | 109° |
| 2026-04-30 22:10 | 60.59887 | -133.96042 | 31038 ft | 559 kts | 109° |
| 2026-04-30 22:11 | 60.56819 | -133.73276 | 31034 ft | 559 kts | 109° |
| 2026-04-30 22:12 | 60.54748 | -133.58095 | 31032 ft | 559 kts | 109° |
| 2026-04-30 22:12 | 60.52653 | -133.42880 | 31034 ft | 559 kts | 109° |
| 2026-04-30 22:13 | 60.50552 | -133.27754 | 31030 ft | 558 kts | 110° |
| 2026-04-30 22:13 | 60.48437 | -133.12715 | 31035 ft | 559 kts | 110° |
| 2026-04-30 22:14 | 60.46290 | -132.97595 | 31037 ft | 561 kts | 109° |
| 2026-04-30 22:14 | 60.44116 | -132.82353 | 31038 ft | 562 kts | 109° |
| 2026-04-30 22:15 | 60.41944 | -132.67291 | 31040 ft | 562 kts | 109° |
| 2026-04-30 22:15 | 60.39732 | -132.52103 | 31042 ft | 562 kts | 109° |
| 2026-04-30 22:16 | 60.37518 | -132.37038 | 31043 ft | 562 kts | 109° |
| 2026-04-30 22:17 | 60.33038 | -132.06964 | 31036 ft | 561 kts | 110° |
| 2026-04-30 22:17 | 60.29626 | -131.84418 | 31038 ft | 561 kts | 110° |
| 2026-04-30 22:18 | 60.26178 | -131.61928 | 31040 ft | 561 kts | 110° |
| 2026-04-30 22:19 | 60.22693 | -131.39484 | 31043 ft | 561 kts | 110° |
| 2026-04-30 22:20 | 60.19177 | -131.17143 | 31035 ft | 560 kts | 111° |
| 2026-04-30 22:20 | 60.15626 | -130.94876 | 31047 ft | 561 kts | 111° |
| 2026-04-30 22:21 | 60.13214 | -130.79906 | 31084 ft | 563 kts | 111° |
| 2026-04-30 22:21 | 60.10794 | -130.64987 | 31064 ft | 563 kts | 111° |
| 2026-04-30 22:22 | 60.08363 | -130.50150 | 31042 ft | 563 kts | 111° |
| 2026-04-30 22:22 | 60.05914 | -130.35324 | 31024 ft | 563 kts | 111° |
| 2026-04-30 22:23 | 60.03444 | -130.20474 | 30998 ft | 562 kts | 112° |
| 2026-04-30 22:23 | 60.00872 | -130.05763 | 31000 ft | 561 kts | 114° |
| 2026-04-30 22:24 | 59.97395 | -129.92046 | 31009 ft | 550 kts | 130° |
| 2026-04-30 22:24 | 59.93122 | -129.79507 | 31002 ft | 551 kts | 129° |
| 2026-04-30 22:25 | 59.88842 | -129.66872 | 31003 ft | 550 kts | 129° |
| 2026-04-30 22:25 | 59.84553 | -129.54269 | 31006 ft | 551 kts | 129° |
| 2026-04-30 22:26 | 59.78110 | -129.35452 | 31008 ft | 551 kts | 129° |
| 2026-04-30 22:27 | 59.73787 | -129.22908 | 30999 ft | 550 kts | 130° |
| 2026-04-30 22:27 | 59.67306 | -129.04248 | 31000 ft | 551 kts | 130° |
| 2026-04-30 22:28 | 59.60772 | -128.85580 | 31002 ft | 555 kts | 129° |
| 2026-04-30 22:29 | 59.52000 | -128.60712 | 31004 ft | 554 kts | 129° |
| 2026-04-30 22:31 | 59.36509 | -128.17464 | 30999 ft | 553 kts | 130° |
| 2026-04-30 22:32 | 59.25377 | -127.86872 | 31002 ft | 553 kts | 130° |
| 2026-04-30 22:33 | 59.14190 | -127.56523 | 31006 ft | 553 kts | 130° |
| 2026-04-30 22:35 | 59.02934 | -127.26370 | 30997 ft | 552 kts | 131° |
| 2026-04-30 22:36 | 58.91638 | -126.96511 | 31001 ft | 550 kts | 130° |
| 2026-04-30 22:37 | 58.82544 | -126.72732 | 31000 ft | 552 kts | 130° |
| 2026-04-30 22:38 | 58.73410 | -126.49091 | 31007 ft | 553 kts | 129° |
| 2026-04-30 22:39 | 58.66527 | -126.31428 | 31000 ft | 551 kts | 130° |
| 2026-04-30 22:40 | 58.52713 | -125.96358 | 30874 ft | 552 kts | 131° |
| 2026-04-30 22:41 | 58.41128 | -125.67358 | 30871 ft | 550 kts | 131° |
| 2026-04-30 22:43 | 58.27139 | -125.32813 | 30874 ft | 552 kts | 131° |
| 2026-04-30 22:44 | 58.17762 | -125.09911 | 30928 ft | 551 kts | 132° |
| 2026-04-30 22:45 | 58.03636 | -124.75869 | 30958 ft | 549 kts | 131° |
| 2026-04-30 22:47 | 57.89470 | -124.42181 | 30961 ft | 549 kts | 131° |
| 2026-04-30 22:48 | 57.79983 | -124.19888 | 30953 ft | 548 kts | 132° |
| 2026-04-30 22:49 | 57.65706 | -123.86738 | 30954 ft | 548 kts | 132° |
| 2026-04-30 22:51 | 57.51319 | -123.53799 | 30960 ft | 548 kts | 132° |
| 2026-04-30 22:52 | 57.44105 | -123.37439 | 30960 ft | 548 kts | 132° |